Klik op de webcam foto voor een grotere versieKlik op de webcam foto voor een grotere versie
Of klik hier voor
de webcam video


Weerstation
Wilsele-Leuven:Website of another weatherstation



Het weer levert geen direct gevaar op.    Er zijn geen waarschuwingen afgegeven.

Nabijgelegen vliegvelden - METAR rapporten

   
EBBR - Vaartkom-Leuven
Gewijzigd: 20-08-2019 15:50
Licht bewolkt    Wind: Westen 19 km/h
Licht bewolkt
Wind: Wind: Westen 19 km/h
Temperatuur: 21°C
Dauwpunt: 9°C
Vochtigheid: 46%
Barometer: 1023 hPa
Bewolking: Licht bewolkt
Zicht: meer dan 10 km
Bewolking: Licht bewolkt 1371.6 m
EBBR 201350Z 28010KT 250V310 9999 FEW045 21/09 Q1023 NOSIG
EBAW - Antwerp
Gewijzigd: 20-08-2019 15:50
Gedeeltelijk bewolkt    Wind: WNW 19 km/h
Gedeeltelijk bewolkt
Wind: Wind: WNW 19 km/h
Temperatuur: 21°C
Dauwpunt: 9°C
Vochtigheid: 46%
Barometer: 1023 hPa
Bewolking: Gedeeltelijk bewolkt
Zicht: meer dan 10 km
Bewolking: Gedeeltelijk bewolkt 1432.6 m
EBAW 201350Z 29010KT 9999 SCT047 21/09 Q1023 NOSIG
EBLG - Liège
Gewijzigd: 20-08-2019 15:50
Licht bewolkt    Wind: Westen 17 km/h
Licht bewolkt
Wind: Wind: Westen 17 km/h
Temperatuur: 21°C
Dauwpunt: 10°C
Vochtigheid: 50%
Barometer: 1023 hPa
Bewolking: Licht bewolkt
Zicht: meer dan 10 km
Bewolking: Licht bewolkt 1463 m
EBLG 201350Z 28009KT 250V320 9999 FEW048 21/10 Q1023 NOSIG
EBCV - Mons/Bergen
Gewijzigd: 20-08-2019 15:55
Gedeeltelijk bewolkt    Wind: Westen 15 km/h
Gedeeltelijk bewolkt
Wind: Wind: Westen 15 km/h
Temperatuur: 22°C
Dauwpunt: 9°C
Vochtigheid: 44%
Barometer: 1024 hPa
Bewolking: Gedeeltelijk bewolkt
Zicht: meer dan 10 km
Bewolking: Licht bewolkt 1585 m,
Gedeeltelijk bewolkt 2316.5 m
EBCV 201355Z AUTO 26008KT 9999 FEW052/// SCT076/// 22/09 Q1024 BLU
EHBK - Maastricht
Gewijzigd: 20-08-2019 15:55
Gedeeltelijk bewolkt    Wind: WZW 17 km/h
Gedeeltelijk bewolkt
Wind: Wind: WZW 17 km/h
Temperatuur: 21°C
Dauwpunt: 10°C
Vochtigheid: 50%
Barometer: 1023 hPa
Bewolking: Gedeeltelijk bewolkt
Zicht: meer dan 10 km
Bewolking: Gedeeltelijk bewolkt
EHBK 201355Z AUTO 25009KT 210V330 9999 NSC 21/10 Q1023 NOSIG
ELLX - Luxemburg
Gewijzigd: 20-08-2019 15:50
Licht bewolkt    Wind: WZW 11 km/h
Licht bewolkt
Wind: Wind: WZW 11 km/h
Temperatuur: 20°C
Dauwpunt: 9°C
Vochtigheid: 49%
Barometer: 1025 hPa
Bewolking: Licht bewolkt
Zicht: meer dan 10 km
Bewolking: Licht bewolkt 1371.6 m
ELLX 201350Z 24006KT 170V310 9999 FEW045 20/09 Q1025 NOSIG
EBOS - Oostende
Gewijzigd: 20-08-2019 15:50
Licht bewolkt    Wind: Westen 24 km/h
Licht bewolkt
Wind: Wind: Westen 24 km/h
Temperatuur: 19°C
Dauwpunt: 12°C
Vochtigheid: 64%
Barometer: 1024 hPa
Bewolking: Licht bewolkt
Zicht: meer dan 10 km
Bewolking: Licht bewolkt 975.4 m
EBOS 201350Z 28013KT 9999 FEW032 19/12 Q1024 NOSIG
  

Script ontwikkeld door  Saratoga-weather.org Aangepast voor de template door  Weerstation Leuven

U vindt ons ook hier:

UK Metoffice

WeatherCloud

European Weather Network

Weather Underground

Bernelux Weather Network

AWEKAS

Citizen Weather Observer Program (CWOP)

HAMweather, WeatherForYou, PWS Weather

Apparatuur in gebruik:

Weer-station
Davis VUE

Weer-programma
Meteobridge

Weer-computer
Nano-SD

Webleverancier
Robohost

Davis VUE

Meteobridge

Nano-SD

Robohost